Time;durP1;ratioP1;P1;durP2;ratioP2;P2;SDS_P1;SDS_P2;PMS_P1;PMS_P2;Temp;Humidity;BMP_temperature;BMP_pressure;BME280_temperature;BME280_humidity;BME280_pressure;Samples;Min_cycle;Max_cycle;Signal;HPM_P1;HPM_P2
2023/03/27 00:01:03;;;;;;;5.10;1.50;;;;;;;;;;5025764;28;20025;-79
2023/03/27 00:03:29;;;;;;;2.50;1.52;;;;;;;;;;5024402;28;20093;-79
2023/03/27 00:06:03;;;;;;;3.03;1.60;;;;;;;;;;5023925;28;20105;-77
2023/03/27 00:08:30;;;;;;;3.95;1.20;;;;;;;;;;5025453;28;20490;-75
2023/03/27 00:10:56;;;;;;;3.17;1.13;;;;;;;;;;5007868;28;20432;-78
2023/03/27 00:13:22;;;;;;;3.30;1.58;;;;;;;;;;5023389;28;20057;-77
2023/03/27 00:15:49;;;;;;;4.18;1.70;;;;;;;;;;5024843;28;20021;-78
2023/03/27 00:18:15;;;;;;;5.90;1.50;;;;;;;;;;5024968;28;20026;-78
2023/03/27 00:20:41;;;;;;;27.00;15.45;;;;;;;;;;5023247;28;20117;-71
2023/03/27 00:23:06;;;;;;;36.00;17.40;;;;;;;;;;5024535;28;20017;-73
2023/03/27 00:25:33;;;;;;;76.35;26.20;;;;;;;;;;5023341;28;20425;-76
2023/03/27 00:27:59;;;;;;;19.27;7.07;;;;;;;;;;5023113;28;20026;-78
2023/03/27 00:30:27;;;;;;;8.02;4.28;;;;;;;;;;5017420;28;20071;-71
2023/03/27 00:32:55;;;;;;;11.02;3.55;;;;;;;;;;5018895;28;20045;-78
2023/03/27 00:35:22;;;;;;;3.65;1.40;;;;;;;;;;5034981;28;20021;-79
2023/03/27 00:37:48;;;;;;;2.78;1.48;;;;;;;;;;5034791;28;20021;-73
2023/03/27 00:40:16;;;;;;;2.55;1.20;;;;;;;;;;5034962;28;20026;-79
2023/03/27 00:42:44;;;;;;;3.00;1.25;;;;;;;;;;5035025;28;20459;-76
2023/03/27 00:45:16;;;;;;;5.18;1.65;;;;;;;;;;5034731;28;20025;-73
2023/03/27 00:47:43;;;;;;;2.40;1.48;;;;;;;;;;5034779;28;20036;-79
2023/03/27 00:50:13;;;;;;;3.92;1.67;;;;;;;;;;5034338;28;20057;-70
2023/03/27 00:52:41;;;;;;;5.80;2.03;;;;;;;;;;5034854;28;20032;-78
2023/03/27 00:55:13;;;;;;;2.17;1.15;;;;;;;;;;5034593;28;20034;-74
2023/03/27 00:57:40;;;;;;;3.15;1.20;;;;;;;;;;5034721;28;20026;-75
2023/03/27 01:00:12;;;;;;;2.50;1.65;;;;;;;;;;5034700;28;20139;-77
2023/03/27 01:02:43;;;;;;;1.58;1.00;;;;;;;;;;5034572;28;20029;-79
2023/03/27 01:05:10;;;;;;;2.50;1.20;;;;;;;;;;5034198;28;20050;-79
2023/03/27 01:07:36;;;;;;;4.53;1.30;;;;;;;;;;5034418;28;20042;-78
2023/03/27 01:10:05;;;;;;;3.78;1.10;;;;;;;;;;5016702;28;20498;-79
2023/03/27 01:12:45;;;;;;;2.72;1.23;;;;;;;;;;5034333;28;20033;-79
2023/03/27 01:15:16;;;;;;;1.48;0.98;;;;;;;;;;5034284;28;20045;-74
2023/03/27 01:18:06;;;;;;;1.88;1.00;;;;;;;;;;5034550;28;20374;-76
2023/03/27 01:20:46;;;;;;;2.28;1.15;;;;;;;;;;5034095;28;20079;-71
2023/03/27 01:23:30;;;;;;;6.93;2.42;;;;;;;;;;5034140;28;20025;-75
2023/03/27 01:26:29;;;;;;;1.65;1.08;;;;;;;;;;5033960;28;20029;-79
2023/03/27 01:29:03;;;;;;;2.53;1.35;;;;;;;;;;5034115;28;20632;-78
2023/03/27 01:31:42;;;;;;;5.47;2.03;;;;;;;;;;5034016;28;20136;-75
2023/03/27 01:34:37;;;;;;;3.78;1.45;;;;;;;;;;5047583;28;20037;-77
2023/03/27 01:37:05;;;;;;;3.47;1.40;;;;;;;;;;5053638;28;20389;-77
2023/03/27 01:39:34;;;;;;;2.85;1.52;;;;;;;;;;5053756;28;20028;-73
2023/03/27 01:42:17;;;;;;;4.13;1.20;;;;;;;;;;5053707;28;20024;-79
2023/03/27 01:45:05;;;;;;;3.38;1.30;;;;;;;;;;5053611;28;20087;-80
2023/03/27 01:47:33;;;;;;;1.20;0.77;;;;;;;;;;5053498;28;20175;-75
2023/03/27 01:50:14;;;;;;;2.05;0.93;;;;;;;;;;5053094;28;20061;-77
2023/03/27 01:52:45;;;;;;;3.63;1.00;;;;;;;;;;5053628;28;20086;-80
2023/03/27 01:55:17;;;;;;;2.45;1.40;;;;;;;;;;5053427;28;20035;-80
2023/03/27 01:57:59;;;;;;;1.58;1.00;;;;;;;;;;5053373;28;20489;-78
2023/03/27 02:00:26;;;;;;;2.42;0.98;;;;;;;;;;5053378;28;20032;-80
2023/03/27 02:03:02;;;;;;;3.05;1.50;;;;;;;;;;5053261;28;20029;-80
2023/03/27 02:05:30;;;;;;;1.48;1.00;;;;;;;;;;5053276;28;20040;-80
2023/03/27 02:08:03;;;;;;;1.35;0.90;;;;;;;;;;5053176;28;20029;-78
2023/03/27 02:10:35;;;;;;;2.33;1.02;;;;;;;;;;5053333;28;20017;-79
2023/03/27 02:13:08;;;;;;;8.63;1.10;;;;;;;;;;5053214;28;20028;-80
2023/03/27 02:15:39;;;;;;;1.65;1.05;;;;;;;;;;5053056;28;20033;-77
2023/03/27 02:18:11;;;;;;;1.50;0.90;;;;;;;;;;5053115;28;20031;-78
2023/03/27 02:20:38;;;;;;;3.05;1.60;;;;;;;;;;5053080;28;20028;-78
2023/03/27 02:23:06;;;;;;;2.53;1.10;;;;;;;;;;5053011;28;20032;-80
2023/03/27 02:25:31;;;;;;;1.35;0.90;;;;;;;;;;5052744;28;20428;-74
2023/03/27 02:28:21;;;;;;;1.77;1.00;;;;;;;;;;5052637;28;20044;-79
2023/03/27 02:31:01;;;;;;;2.75;1.10;;;;;;;;;;5052899;28;20443;-80
2023/03/27 02:33:45;;;;;;;1.97;0.97;;;;;;;;;;5052329;28;20039;-79
2023/03/27 02:36:20;;;;;;;1.33;0.95;;;;;;;;;;5052247;28;20262;-80
2023/03/27 02:38:50;;;;;;;5.25;1.35;;;;;;;;;;5051924;28;20035;-77
2023/03/27 02:41:37;;;;;;;1.48;1.02;;;;;;;;;;5052425;28;20083;-81
2023/03/27 02:44:09;;;;;;;3.08;1.30;;;;;;;;;;5052296;28;20108;-80
2023/03/27 02:46:47;;;;;;;2.95;1.00;;;;;;;;;;5052375;28;20025;-80
2023/03/27 02:49:22;;;;;;;2.78;1.30;;;;;;;;;;5052122;28;20385;-79
2023/03/27 02:52:00;;;;;;;3.53;1.20;;;;;;;;;;5052241;28;20052;-77
2023/03/27 02:54:31;;;;;;;4.40;1.20;;;;;;;;;;5052599;28;20041;-77
2023/03/27 02:57:04;;;;;;;2.40;1.05;;;;;;;;;;5052372;28;20029;-81
2023/03/27 02:59:34;;;;;;;3.05;1.00;;;;;;;;;;5052387;28;20032;-79
2023/03/27 03:02:06;;;;;;;3.67;1.40;;;;;;;;;;5052265;28;20107;-79
2023/03/27 03:04:44;;;;;;;3.85;1.33;;;;;;;;;;5052381;28;20029;-80
2023/03/27 03:07:12;;;;;;;2.47;1.23;;;;;;;;;;5051717;28;20073;-80
2023/03/27 03:09:39;;;;;;;2.75;1.40;;;;;;;;;;5051995;28;20044;-78
2023/03/27 03:12:05;;;;;;;1.58;1.05;;;;;;;;;;5052226;28;20051;-79
2023/03/27 03:14:35;;;;;;;1.40;1.10;;;;;;;;;;5052361;28;20404;-69
2023/03/27 03:17:00;;;;;;;2.90;1.35;;;;;;;;;;5051962;28;20111;-72
2023/03/27 03:19:26;;;;;;;1.42;0.90;;;;;;;;;;5052132;28;20079;-70
2023/03/27 03:21:51;;;;;;;6.22;1.17;;;;;;;;;;5052087;28;20017;-78
2023/03/27 03:24:17;;;;;;;2.17;1.27;;;;;;;;;;5052061;28;20053;-70
2023/03/27 03:26:44;;;;;;;4.32;1.33;;;;;;;;;;5052057;28;20531;-79
2023/03/27 03:29:13;;;;;;;1.95;1.17;;;;;;;;;;5052084;28;20025;-62
2023/03/27 03:31:44;;;;;;;4.47;1.40;;;;;;;;;;5051779;28;20025;-72
2023/03/27 03:34:15;;;;;;;3.65;1.35;;;;;;;;;;5051911;28;20190;-67
2023/03/27 03:36:41;;;;;;;1.48;1.00;;;;;;;;;;5052030;28;20474;-71
2023/03/27 03:39:08;;;;;;;4.30;1.15;;;;;;;;;;5052033;28;20108;-79
2023/03/27 03:41:33;;;;;;;1.30;1.17;;;;;;;;;;5051973;28;20096;-77
2023/03/27 03:43:59;;;;;;;4.63;1.25;;;;;;;;;;5051683;28;20178;-75
2023/03/27 03:46:24;;;;;;;5.28;1.00;;;;;;;;;;5051808;28;20025;-76
2023/03/27 03:48:50;;;;;;;1.75;0.88;;;;;;;;;;5052016;28;20017;-72
2023/03/27 03:51:15;;;;;;;1.50;1.02;;;;;;;;;;5051708;28;20049;-77
2023/03/27 03:53:41;;;;;;;2.55;1.30;;;;;;;;;;5051862;28;20091;-79
2023/03/27 03:56:06;;;;;;;2.70;1.20;;;;;;;;;;5051867;28;20029;-74
2023/03/27 03:58:32;;;;;;;16.65;2.15;;;;;;;;;;5051861;28;20029;-78
2023/03/27 04:00:57;;;;;;;2.83;1.20;;;;;;;;;;5055703;28;20082;-73
2023/03/27 04:03:25;;;;;;;5.30;1.13;;;;;;;;;;5055589;28;20115;-80
2023/03/27 04:05:52;;;;;;;2.00;1.27;;;;;;;;;;5055539;28;20056;-80
2023/03/27 04:08:17;;;;;;;1.77;1.00;;;;;;;;;;5055286;28;20029;-76
2023/03/27 04:10:43;;;;;;;2.83;1.48;;;;;;;;;;5055270;28;20051;-78
2023/03/27 04:13:09;;;;;;;4.07;1.40;;;;;;;;;;5055078;28;20045;-75
2023/03/27 04:15:35;;;;;;;1.38;0.90;;;;;;;;;;5055337;28;20021;-78
2023/03/27 04:18:01;;;;;;;3.88;1.20;;;;;;;;;;5055453;28;20086;-78
2023/03/27 04:20:27;;;;;;;2.85;1.23;;;;;;;;;;5054958;28;20039;-78
2023/03/27 04:22:53;;;;;;;2.78;1.10;;;;;;;;;;5055332;28;20036;-76
2023/03/27 04:25:23;;;;;;;1.02;0.82;;;;;;;;;;5055115;28;20024;-80
2023/03/27 04:27:50;;;;;;;;;;;;;;;;;;5055270;28;20350;-76
2023/03/27 04:30:21;;;;;;;3.63;1.20;;;;;;;;;;5055090;28;19917;-79
2023/03/27 04:32:48;;;;;;;5.18;1.45;;;;;;;;;;5055009;28;20433;-79
2023/03/27 04:35:14;;;;;;;1.88;1.00;;;;;;;;;;5037088;28;20021;-79
2023/03/27 04:37:43;;;;;;;2.42;1.38;;;;;;;;;;5054948;28;20359;-78
2023/03/27 04:40:12;;;;;;;2.28;1.20;;;;;;;;;;5054777;28;20036;-78
2023/03/27 04:42:42;;;;;;;4.95;1.10;;;;;;;;;;5054557;28;20021;-77
2023/03/27 04:45:22;;;;;;;3.35;1.05;;;;;;;;;;5054541;28;20036;-77
2023/03/27 04:47:47;;;;;;;2.63;1.17;;;;;;;;;;5054538;28;20389;-79
2023/03/27 04:50:15;;;;;;;1.95;1.13;;;;;;;;;;5054502;28;20113;-76
2023/03/27 04:52:41;;;;;;;2.40;1.15;;;;;;;;;;5054723;28;20075;-74
2023/03/27 04:55:07;;;;;;;2.50;1.05;;;;;;;;;;5054632;28;20017;-73
2023/03/27 04:57:33;;;;;;;5.30;1.00;;;;;;;;;;5054369;28;20032;-78
2023/03/27 05:00:00;;;;;;;4.13;1.20;;;;;;;;;;5041038;28;20026;-77
2023/03/27 05:02:26;;;;;;;2.83;1.33;;;;;;;;;;5034457;28;20045;-79
2023/03/27 05:04:57;;;;;;;3.53;1.30;;;;;;;;;;5034368;28;20425;-74
2023/03/27 05:07:25;;;;;;;3.72;1.10;;;;;;;;;;5034031;28;20355;-79
2023/03/27 05:09:50;;;;;;;3.03;1.20;;;;;;;;;;5033825;28;20029;-78
2023/03/27 05:12:16;;;;;;;8.05;1.65;;;;;;;;;;5033014;28;20028;-78
2023/03/27 05:14:42;;;;;;;2.03;1.38;;;;;;;;;;5033643;28;20078;-79
2023/03/27 05:17:08;;;;;;;4.28;1.55;;;;;;;;;;5034078;28;20103;-74
2023/03/27 05:19:34;;;;;;;2.58;1.45;;;;;;;;;;5034228;28;20086;-74
2023/03/27 05:21:59;;;;;;;5.50;1.75;;;;;;;;;;5034052;28;20112;-78
2023/03/27 05:24:25;;;;;;;2.60;1.10;;;;;;;;;;5034171;28;20036;-70
2023/03/27 05:26:51;;;;;;;1.77;1.20;;;;;;;;;;5033748;28;20036;-66
2023/03/27 05:29:16;;;;;;;3.15;1.60;;;;;;;;;;5033795;28;20471;-77
2023/03/27 05:31:42;;;;;;;2.97;1.10;;;;;;;;;;5034055;28;20026;-78
2023/03/27 05:34:07;;;;;;;7.90;1.50;;;;;;;;;;5047708;28;20032;-76
2023/03/27 05:36:34;;;;;;;3.35;1.40;;;;;;;;;;5053656;28;20382;-76
2023/03/27 05:39:00;;;;;;;1.70;1.30;;;;;;;;;;5053847;28;20029;-77
2023/03/27 05:41:26;;;;;;;2.13;1.20;;;;;;;;;;5053483;28;20104;-76
2023/03/27 05:43:52;;;;;;;3.53;1.42;;;;;;;;;;5053594;28;20107;-75
2023/03/27 05:46:18;;;;;;;2.25;1.30;;;;;;;;;;5053279;28;20475;-74
2023/03/27 05:48:43;;;;;;;2.03;1.10;;;;;;;;;;5053431;28;20029;-76
2023/03/27 05:51:09;;;;;;;3.15;1.70;;;;;;;;;;5052931;28;20132;-74
2023/03/27 05:53:38;;;;;;;2.50;1.95;;;;;;;;;;5053439;28;20032;-80
2023/03/27 05:56:07;;;;;;;2.53;1.50;;;;;;;;;;5053098;28;20029;-79
2023/03/27 05:58:33;;;;;;;2.95;1.13;;;;;;;;;;5053161;28;20029;-78
2023/03/27 06:00:59;;;;;;;1.80;1.10;;;;;;;;;;5053303;28;20032;-75
2023/03/27 06:03:29;;;;;;;3.60;1.08;;;;;;;;;;5053359;28;20025;-79
2023/03/27 06:05:55;;;;;;;3.30;0.90;;;;;;;;;;5053031;28;20033;-74
2023/03/27 06:08:21;;;;;;;1.80;1.13;;;;;;;;;;5052762;28;20141;-77
2023/03/27 06:10:46;;;;;;;4.38;1.55;;;;;;;;;;5052782;28;20035;-77
2023/03/27 06:13:13;;;;;;;2.30;0.90;;;;;;;;;;5052887;28;20025;-78
2023/03/27 06:15:41;;;;;;;3.95;1.77;;;;;;;;;;5052921;28;20152;-71
2023/03/27 06:18:08;;;;;;;3.53;1.00;;;;;;;;;;5053056;28;20037;-74
2023/03/27 06:20:34;;;;;;;4.20;1.42;;;;;;;;;;5052928;28;20143;-75
2023/03/27 06:23:00;;;;;;;2.50;1.40;;;;;;;;;;5052019;28;20111;-75
2023/03/27 06:25:30;;;;;;;5.35;1.80;;;;;;;;;;5052456;28;20032;-74
2023/03/27 06:27:55;;;;;;;4.82;1.50;;;;;;;;;;5052299;28;20071;-76
2023/03/27 06:30:23;;;;;;;2.58;1.50;;;;;;;;;;5052739;28;20056;-72
2023/03/27 06:32:51;;;;;;;4.60;1.42;;;;;;;;;;5052390;28;20047;-80
2023/03/27 06:35:18;;;;;;;3.78;1.40;;;;;;;;;;5052524;28;20032;-65
2023/03/27 06:37:47;;;;;;;3.20;1.25;;;;;;;;;;5052497;28;20501;-77
2023/03/27 06:40:19;;;;;;;3.55;1.05;;;;;;;;;;5052397;28;20112;-76
2023/03/27 06:42:59;;;;;;;9.30;1.38;;;;;;;;;;5052554;28;20029;-77
2023/03/27 06:45:28;;;;;;;3.97;1.45;;;;;;;;;;5052447;28;20033;-74
2023/03/27 06:47:56;;;;;;;3.83;1.35;;;;;;;;;;5051921;28;20033;-67
2023/03/27 06:50:23;;;;;;;3.65;1.85;;;;;;;;;;5052043;28;20470;-72
2023/03/27 06:52:48;;;;;;;4.60;1.30;;;;;;;;;;5052151;28;20037;-66
2023/03/27 06:55:16;;;;;;;1.88;1.10;;;;;;;;;;5043605;28;20032;-66
2023/03/27 06:57:43;;;;;;;3.42;1.30;;;;;;;;;;5024528;28;20060;-72
2023/03/27 07:00:19;;;;;;;1.55;0.90;;;;;;;;;;5026809;28;20033;-63
2023/03/27 07:02:48;;;;;;;3.60;1.35;;;;;;;;;;5029213;28;20087;-74
2023/03/27 07:05:15;;;;;;;3.07;1.50;;;;;;;;;;5029110;28;20033;-78
2023/03/27 07:07:41;;;;;;;3.03;1.27;;;;;;;;;;5028486;28;20303;-79
2023/03/27 07:10:08;;;;;;;2.58;1.70;;;;;;;;;;5028810;28;20044;-75
2023/03/27 07:12:34;;;;;;;3.50;1.10;;;;;;;;;;5028343;28;20068;-66
2023/03/27 07:15:00;;;;;;;1.33;1.08;;;;;;;;;;5028619;28;20049;-79
2023/03/27 07:17:25;;;;;;;7.45;1.70;;;;;;;;;;5028538;28;20030;-75
2023/03/27 07:19:52;;;;;;;1.88;1.20;;;;;;;;;;5028626;28;20029;-75
2023/03/27 07:22:18;;;;;;;3.78;1.65;;;;;;;;;;5028820;28;20029;-63
2023/03/27 07:24:43;;;;;;;3.63;2.17;;;;;;;;;;5028524;28;20039;-75
2023/03/27 07:27:08;;;;;;;4.88;1.75;;;;;;;;;;5028753;28;20072;-65
2023/03/27 07:29:35;;;;;;;2.15;1.30;;;;;;;;;;5028477;28;20050;-67
2023/03/27 07:32:01;;;;;;;3.13;1.80;;;;;;;;;;5026282;28;20379;-74
2023/03/27 07:34:27;;;;;;;2.45;1.10;;;;;;;;;;5032795;28;20025;-70
2023/03/27 07:36:52;;;;;;;3.53;1.30;;;;;;;;;;5030059;28;20026;-72
2023/03/27 07:39:17;;;;;;;3.05;1.40;;;;;;;;;;5032565;28;20030;-63
2023/03/27 07:41:43;;;;;;;6.05;1.52;;;;;;;;;;5032505;28;20055;-71
2023/03/27 07:44:08;;;;;;;2.45;1.40;;;;;;;;;;5032347;28;20037;-73
2023/03/27 07:46:34;;;;;;;2.83;1.17;;;;;;;;;;5032037;28;20425;-62
2023/03/27 07:48:59;;;;;;;2.20;1.30;;;;;;;;;;5032184;28;20459;-62
2023/03/27 07:51:25;;;;;;;1.63;1.25;;;;;;;;;;5029985;28;20393;-66
2023/03/27 07:53:57;;;;;;;4.75;1.30;;;;;;;;;;5032131;28;20100;-63
2023/03/27 07:56:23;;;;;;;3.83;1.50;;;;;;;;;;5031699;28;20052;-74
2023/03/27 07:58:50;;;;;;;5.30;1.33;;;;;;;;;;5014501;28;20458;-75
2023/03/27 08:01:15;;;;;;;2.15;1.15;;;;;;;;;;5026944;28;20092;-66
2023/03/27 08:03:41;;;;;;;1.67;1.20;;;;;;;;;;5031991;28;20029;-64
2023/03/27 08:06:06;;;;;;;2.45;1.30;;;;;;;;;;5031638;28;20037;-73
2023/03/27 08:08:33;;;;;;;4.55;1.63;;;;;;;;;;5031676;28;20113;-72
2023/03/27 08:11:01;;;;;;;2.38;1.23;;;;;;;;;;5032031;28;20140;-65
2023/03/27 08:13:27;;;;;;;3.10;1.63;;;;;;;;;;5031882;28;20033;-63
2023/03/27 08:16:05;;;;;;;1.35;1.08;;;;;;;;;;5032053;28;20083;-65
2023/03/27 08:18:30;;;;;;;2.40;1.50;;;;;;;;;;5013755;28;20036;-67
2023/03/27 08:20:57;;;;;;;4.43;1.20;;;;;;;;;;5031705;28;20021;-63
2023/03/27 08:23:26;;;;;;;3.28;1.17;;;;;;;;;;5031713;28;20083;-66
2023/03/27 08:25:52;;;;;;;5.45;1.33;;;;;;;;;;5031561;28;20060;-66
2023/03/27 08:28:17;;;;;;;2.38;1.50;;;;;;;;;;5031541;28;20064;-63
2023/03/27 08:30:42;;;;;;;2.33;1.20;;;;;;;;;;5027025;28;20433;-69
2023/03/27 08:33:08;;;;;;;3.72;1.42;;;;;;;;;;5035147;28;20038;-68
2023/03/27 08:35:34;;;;;;;2.75;1.25;;;;;;;;;;5031874;28;20042;-65
2023/03/27 08:38:00;;;;;;;6.50;1.40;;;;;;;;;;5024705;28;20116;-63
2023/03/27 08:40:28;;;;;;;2.30;1.15;;;;;;;;;;5029391;28;20114;-74
2023/03/27 08:42:59;;;;;;;2.85;1.48;;;;;;;;;;5031348;28;20490;-77
2023/03/27 08:45:37;;;;;;;2.75;1.58;;;;;;;;;;5029932;28;20036;-62
2023/03/27 08:48:27;;;;;;;2.42;1.00;;;;;;;;;;5029706;28;20064;-65
2023/03/27 08:51:06;;;;;;;1.88;1.15;;;;;;;;;;5026232;28;20483;-62
2023/03/27 08:53:38;;;;;;;1.70;0.90;;;;;;;;;;5027878;28;20437;-76
2023/03/27 08:56:04;;;;;;;7.00;1.25;;;;;;;;;;5028095;28;20025;-62
2023/03/27 08:58:31;;;;;;;5.20;0.93;;;;;;;;;;5027951;28;20034;-63
2023/03/27 09:01:05;;;;;;;2.38;1.20;;;;;;;;;;5030094;28;20414;-76
2023/03/27 09:03:39;;;;;;;1.88;1.00;;;;;;;;;;5029071;28;20049;-64
2023/03/27 09:06:47;;;;;;;4.63;1.60;;;;;;;;;;5030210;28;20029;-68
2023/03/27 09:09:41;;;;;;;1.48;0.82;;;;;;;;;;5024173;28;20045;-64
2023/03/27 09:12:26;;;;;;;4.80;1.10;;;;;;;;;;5030336;28;20038;-64
2023/03/27 09:15:06;;;;;;;1.80;1.10;;;;;;;;;;5028336;28;20025;-66
2023/03/27 09:17:39;;;;;;;4.47;1.50;;;;;;;;;;5029950;28;20037;-76
2023/03/27 09:20:12;;;;;;;4.32;2.35;;;;;;;;;;5030039;28;20037;-64
2023/03/27 09:22:46;;;;;;;6.03;3.00;;;;;;;;;;5029624;28;20033;-67
2023/03/27 09:25:38;;;;;;;3.15;2.33;;;;;;;;;;5029935;28;20364;-64
2023/03/27 09:28:24;;;;;;;3.15;1.50;;;;;;;;;;5003172;28;20037;-74
2023/03/27 09:30:53;;;;;;;3.90;1.60;;;;;;;;;;5028075;28;20453;-63
2023/03/27 09:33:20;;;;;;;1.95;1.00;;;;;;;;;;5029116;28;20053;-62
2023/03/27 09:35:46;;;;;;;1.90;1.10;;;;;;;;;;5027858;28;20037;-72
2023/03/27 09:38:40;;;;;;;4.70;1.30;;;;;;;;;;5029925;28;20033;-76
2023/03/27 09:41:32;;;;;;;2.08;1.45;;;;;;;;;;5029368;28;20390;-78
2023/03/27 09:44:25;;;;;;;1.58;1.20;;;;;;;;;;4987621;28;20483;-74
2023/03/27 09:47:16;;;;;;;2.30;1.25;;;;;;;;;;4977230;28;20488;-73
2023/03/27 09:49:56;;;;;;;2.75;1.20;;;;;;;;;;4979702;28;20042;-77
2023/03/27 09:52:38;;;;;;;2.72;1.52;;;;;;;;;;4958849;28;20080;-69
2023/03/27 09:55:29;;;;;;;3.13;1.20;;;;;;;;;;4955166;28;20066;-67
2023/03/27 09:58:24;;;;;;;2.55;1.40;;;;;;;;;;4881038;29;20068;-62
2023/03/27 10:01:26;;;;;;;2.53;1.20;;;;;;;;;;4889695;29;20067;-68
2023/03/27 10:03:58;;;;;;;3.35;0.90;;;;;;;;;;4878365;29;20048;-77
2023/03/27 10:06:26;;;;;;;6.13;1.75;;;;;;;;;;4876776;29;20120;-76
2023/03/27 10:09:05;;;;;;;3.83;1.50;;;;;;;;;;4887899;29;20049;-66
2023/03/27 10:11:34;;;;;;;2.28;1.20;;;;;;;;;;4891296;29;20050;-63
2023/03/27 10:14:10;;;;;;;2.33;1.20;;;;;;;;;;4889757;29;20525;-73
2023/03/27 10:16:41;;;;;;;1.95;1.30;;;;;;;;;;4891680;29;20045;-71
2023/03/27 10:19:37;;;;;;;3.83;1.20;;;;;;;;;;4890987;29;20047;-63
2023/03/27 10:22:32;;;;;;;1.92;1.00;;;;;;;;;;4895331;29;20446;-69
2023/03/27 10:25:00;;;;;;;3.30;1.42;;;;;;;;;;4880726;29;20119;-64
2023/03/27 10:27:34;;;;;;;3.15;0.93;;;;;;;;;;4896286;29;20032;-69
2023/03/27 10:30:00;;;;;;;5.28;1.20;;;;;;;;;;4901458;29;20041;-72
2023/03/27 10:32:46;;;;;;;2.90;1.60;;;;;;;;;;4897739;29;20044;-71
2023/03/27 10:35:24;;;;;;;4.25;1.50;;;;;;;;;;4943489;28;20034;-62
2023/03/27 10:37:50;;;;;;;1.83;1.10;;;;;;;;;;4974839;28;20042;-64
2023/03/27 10:40:23;;;;;;;2.53;1.02;;;;;;;;;;4979528;28;20069;-69
2023/03/27 10:42:49;;;;;;;1.60;1.13;;;;;;;;;;4978522;28;20037;-68
2023/03/27 10:45:19;;;;;;;2.15;1.15;;;;;;;;;;4989008;28;20483;-68
2023/03/27 10:47:49;;;;;;;1.40;1.10;;;;;;;;;;4980931;28;20077;-66
2023/03/27 10:50:20;;;;;;;5.18;1.10;;;;;;;;;;4976214;28;20456;-63
2023/03/27 10:52:58;;;;;;;3.45;1.27;;;;;;;;;;5028130;28;20017;-67
2023/03/27 10:55:33;;;;;;;1.75;1.10;;;;;;;;;;5029175;28;20028;-63
2023/03/27 10:58:19;;;;;;;2.65;1.60;;;;;;;;;;5028502;28;20033;-62
2023/03/27 11:00:56;;;;;;;1.65;1.20;;;;;;;;;;5028150;28;20045;-62
2023/03/27 11:03:37;;;;;;;1.35;1.10;;;;;;;;;;5027794;28;20096;-78
2023/03/27 11:06:06;;;;;;;5.68;1.20;;;;;;;;;;5028435;28;20033;-73
2023/03/27 11:08:35;;;;;;;1.57;1.10;;;;;;;;;;5027824;28;20030;-63
2023/03/27 11:11:29;;;;;;;1.75;0.90;;;;;;;;;;5027524;28;20041;-65
2023/03/27 11:14:01;;;;;;;2.88;1.10;;;;;;;;;;5027792;28;20042;-64
2023/03/27 11:16:38;;;;;;;9.32;1.55;;;;;;;;;;5029175;28;20030;-65
2023/03/27 11:19:10;;;;;;;2.17;1.20;;;;;;;;;;5027872;28;20095;-77
2023/03/27 11:22:10;;;;;;;3.47;1.30;;;;;;;;;;5027590;28;20142;-71
2023/03/27 11:25:12;;;;;;;2.10;1.10;;;;;;;;;;5011883;28;20037;-63
2023/03/27 11:28:01;;;;;;;4.53;1.35;;;;;;;;;;5026062;28;20044;-64
2023/03/27 11:30:42;;;;;;;1.75;1.10;;;;;;;;;;5021442;28;20056;-66
2023/03/27 11:33:28;;;;;;;1.45;0.93;;;;;;;;;;5022679;28;20038;-64
2023/03/27 11:36:16;;;;;;;4.10;1.17;;;;;;;;;;5024824;28;20025;-64
2023/03/27 11:39:05;;;;;;;2.78;1.00;;;;;;;;;;5015083;28;20402;-62
2023/03/27 11:41:31;;;;;;;1.27;0.85;;;;;;;;;;5023243;28;20120;-65
2023/03/27 11:43:57;;;;;;;1.20;1.00;;;;;;;;;;5023546;28;20057;-63
2023/03/27 11:46:48;;;;;;;2.60;1.08;;;;;;;;;;5022820;28;20462;-64
2023/03/27 11:49:22;;;;;;;1.15;0.90;;;;;;;;;;5021040;28;20382;-69
2023/03/27 11:51:56;;;;;;;1.98;1.02;;;;;;;;;;5022907;28;21570;-63
2023/03/27 11:54:47;;;;;;;2.25;1.00;;;;;;;;;;5006381;28;20024;-64
2023/03/27 11:57:24;;;;;;;1.92;0.95;;;;;;;;;;5022649;28;20112;-75
2023/03/27 11:59:55;;;;;;;2.15;1.10;;;;;;;;;;5026862;28;20038;-67
2023/03/27 12:02:36;;;;;;;2.65;1.17;;;;;;;;;;5025601;28;20101;-71
2023/03/27 12:05:31;;;;;;;1.67;1.13;;;;;;;;;;5027744;28;20037;-67
2023/03/27 12:08:27;;;;;;;1.30;1.20;;;;;;;;;;5027302;28;20386;-65
2023/03/27 12:10:55;;;;;;;0.82;0.70;;;;;;;;;;5021317;28;20107;-69
2023/03/27 12:13:47;;;;;;;2.50;1.10;;;;;;;;;;5026187;28;20073;-66
2023/03/27 12:16:50;;;;;;;3.08;1.80;;;;;;;;;;5022484;28;20041;-73
2023/03/27 12:19:37;;;;;;;3.42;0.93;;;;;;;;;;5021292;28;20041;-76
2023/03/27 12:22:08;;;;;;;2.08;1.20;;;;;;;;;;5027241;28;20029;-71
2023/03/27 12:24:57;;;;;;;6.93;1.77;;;;;;;;;;5030718;28;20021;-75
2023/03/27 12:27:46;;;;;;;2.92;1.00;;;;;;;;;;5030537;28;20076;-78
2023/03/27 12:30:12;;;;;;;2.03;1.10;;;;;;;;;;5030105;28;20053;-72
2023/03/27 12:32:58;;;;;;;1.75;1.10;;;;;;;;;;5026833;28;20060;-74
2023/03/27 12:35:29;;;;;;;3.72;1.10;;;;;;;;;;5030187;28;20108;-67
2023/03/27 12:38:05;;;;;;;1.50;0.98;;;;;;;;;;5029469;28;20413;-64
2023/03/27 12:40:37;;;;;;;4.63;1.30;;;;;;;;;;5024142;28;20167;-64
2023/03/27 12:43:05;;;;;;;3.47;1.50;;;;;;;;;;5030759;28;20029;-71
2023/03/27 12:45:30;;;;;;;3.30;1.48;;;;;;;;;;5030386;28;20467;-73
2023/03/27 12:48:08;;;;;;;2.58;1.25;;;;;;;;;;5031377;28;20032;-75
2023/03/27 12:50:44;;;;;;;5.97;1.80;;;;;;;;;;5030761;28;20407;-72
2023/03/27 12:53:35;;;;;;;3.97;1.50;;;;;;;;;;5029984;28;20029;-70
2023/03/27 12:56:16;;;;;;;6.30;1.60;;;;;;;;;;4980032;28;20700;-62
2023/03/27 12:58:47;;;;;;;1.15;0.90;;;;;;;;;;4978563;28;20494;-73
2023/03/27 13:01:43;;;;;;;3.00;1.35;;;;;;;;;;4976034;28;20039;-72
2023/03/27 13:04:31;;;;;;;4.60;1.10;;;;;;;;;;4977986;28;20484;-70
2023/03/27 13:06:56;;;;;;;5.68;1.00;;;;;;;;;;4981397;28;20038;-77
2023/03/27 13:09:27;;;;;;;1.90;1.08;;;;;;;;;;4974915;28;20038;-71
2023/03/27 13:12:13;;;;;;;2.47;1.30;;;;;;;;;;4989626;28;20114;-66
2023/03/27 13:14:44;;;;;;;3.67;1.10;;;;;;;;;;4975187;28;20406;-74
2023/03/27 13:17:47;;;;;;;5.07;1.60;;;;;;;;;;4978888;28;20429;-65
2023/03/27 13:20:38;;;;;;;2.53;1.50;;;;;;;;;;4970524;28;20039;-62
2023/03/27 13:23:22;;;;;;;2.53;1.20;;;;;;;;;;4974272;28;20038;-68
2023/03/27 13:26:07;;;;;;;3.63;1.10;;;;;;;;;;4975610;28;20129;-67
2023/03/27 13:28:45;;;;;;;1.98;1.00;;;;;;;;;;4971667;28;20035;-65
2023/03/27 13:31:13;;;;;;;2.72;1.10;;;;;;;;;;4981916;28;20030;-68
2023/03/27 13:33:41;;;;;;;2.28;0.90;;;;;;;;;;5012865;28;20053;-72
2023/03/27 13:36:16;;;;;;;2.17;1.10;;;;;;;;;;5029408;28;20029;-67
2023/03/27 13:39:07;;;;;;;1.80;1.10;;;;;;;;;;5024876;28;20033;-70
2023/03/27 13:41:48;;;;;;;1.95;1.00;;;;;;;;;;5028180;28;20044;-76
2023/03/27 13:44:25;;;;;;;1.92;1.23;;;;;;;;;;5029459;28;20026;-62
2023/03/27 13:47:08;;;;;;;13.85;1.77;;;;;;;;;;5030181;28;20087;-71
2023/03/27 13:49:55;;;;;;;5.57;1.20;;;;;;;;;;5028873;28;20457;-77
2023/03/27 13:52:58;;;;;;;8.07;1.67;;;;;;;;;;5028838;28;20061;-64
2023/03/27 13:55:47;;;;;;;5.93;1.40;;;;;;;;;;5029575;28;20037;-69
2023/03/27 13:58:31;;;;;;;8.23;1.70;;;;;;;;;;5029480;28;20033;-63
2023/03/27 14:01:15;;;;;;;4.78;1.70;;;;;;;;;;5028266;28;20040;-76
2023/03/27 14:04:16;;;;;;;2.95;1.40;;;;;;;;;;5029007;28;20022;-63
2023/03/27 14:06:51;;;;;;;2.97;1.65;;;;;;;;;;5029080;28;20033;-62
2023/03/27 14:09:30;;;;;;;2.35;1.40;;;;;;;;;;5029438;28;20029;-66
2023/03/27 14:12:07;;;;;;;2.28;1.15;;;;;;;;;;5028694;28;20034;-68
2023/03/27 14:14:47;;;;;;;4.65;1.30;;;;;;;;;;5026328;28;20067;-63
2023/03/27 14:17:21;;;;;;;1.80;1.02;;;;;;;;;;5028690;28;20065;-63
2023/03/27 14:20:13;;;;;;;1.27;1.00;;;;;;;;;;5030218;28;20029;-64
2023/03/27 14:22:48;;;;;;;4.03;1.00;;;;;;;;;;5028790;28;20091;-67
2023/03/27 14:25:37;;;;;;;2.50;1.10;;;;;;;;;;5028561;28;20092;-68
2023/03/27 14:28:06;;;;;;;9.45;4.00;;;;;;;;;;5029187;28;20378;-62
2023/03/27 14:30:43;;;;;;;1.50;1.13;;;;;;;;;;5028752;28;20061;-63
2023/03/27 14:33:09;;;;;;;2.92;1.42;;;;;;;;;;5031921;28;20124;-63
2023/03/27 14:35:42;;;;;;;3.53;1.13;;;;;;;;;;5028014;28;20017;-66
2023/03/27 14:38:23;;;;;;;8.40;1.95;;;;;;;;;;5025122;28;20157;-62
2023/03/27 14:40:51;;;;;;;4.15;2.30;;;;;;;;;;5025333;28;20037;-62
2023/03/27 14:43:20;;;;;;;3.13;1.50;;;;;;;;;;5028208;28;20029;-64
2023/03/27 14:45:50;;;;;;;10.15;6.85;;;;;;;;;;5029495;28;20040;-63
2023/03/27 14:48:20;;;;;;;4.83;2.83;;;;;;;;;;5028298;28;20030;-72
2023/03/27 14:50:47;;;;;;;5.18;1.20;;;;;;;;;;5028155;28;20116;-62
2023/03/27 14:53:18;;;;;;;9.05;6.13;;;;;;;;;;5028896;28;20052;-65
2023/03/27 14:55:44;;;;;;;1.92;1.20;;;;;;;;;;5028731;28;20029;-65
2023/03/27 14:58:17;;;;;;;26.90;17.85;;;;;;;;;;5011184;28;20040;-77
2023/03/27 15:00:49;;;;;;;8.50;4.40;;;;;;;;;;5028134;28;20079;-78
2023/03/27 15:03:18;;;;;;;5.28;1.70;;;;;;;;;;5028571;28;20071;-74
2023/03/27 15:06:01;;;;;;;3.60;1.52;;;;;;;;;;5028652;28;20402;-76
2023/03/27 15:08:30;;;;;;;2.63;1.10;;;;;;;;;;5028458;28;20113;-74
2023/03/27 15:10:55;;;;;;;1.92;1.05;;;;;;;;;;5028657;28;20052;-75
2023/03/27 15:13:25;;;;;;;4.97;1.30;;;;;;;;;;5028578;28;20025;-77
2023/03/27 15:15:54;;;;;;;5.00;1.40;;;;;;;;;;5029091;28;20029;-77
2023/03/27 15:18:32;;;;;;;2.17;1.20;;;;;;;;;;5028563;28;21480;-76